createdAt,value
2023-03-02T00:00:33.142Z,3.13
2023-03-02T00:03:00.622Z,3.97
2023-03-02T00:05:28.634Z,2.90
2023-03-02T00:07:55.879Z,4.82
2023-03-02T00:10:23.077Z,3.75
2023-03-02T00:12:50.284Z,4.95
2023-03-02T00:15:17.700Z,5.65
2023-03-02T00:17:45.447Z,3.72
2023-03-02T00:20:12.839Z,5.30
2023-03-02T00:22:40.730Z,3.97
2023-03-02T00:25:08.864Z,4.15
2023-03-02T00:27:36.124Z,3.80
2023-03-02T00:30:03.222Z,4.10
2023-03-02T00:32:30.512Z,3.63
2023-03-02T00:34:58.886Z,6.00
2023-03-02T00:37:26.151Z,5.70
2023-03-02T00:39:53.702Z,5.13
2023-03-02T00:42:21.335Z,3.80
2023-03-02T00:44:48.461Z,4.78
2023-03-02T00:47:15.735Z,8.25
2023-03-02T00:49:49.493Z,5.30
2023-03-02T00:52:17.547Z,3.45
2023-03-02T00:54:44.732Z,2.40
2023-03-02T00:57:12.116Z,6.30
2023-03-02T00:59:39.959Z,2.78
2023-03-02T01:02:21.627Z,7.00
2023-03-02T01:04:49.942Z,5.70
2023-03-02T01:07:18.196Z,4.50
2023-03-02T01:09:45.709Z,5.22
2023-03-02T01:12:13.216Z,4.88
2023-03-02T01:14:41.946Z,1.98
2023-03-02T01:17:09.710Z,3.05
2023-03-02T01:19:37.085Z,3.03
2023-03-02T01:22:04.450Z,2.75
2023-03-02T01:24:32.283Z,3.75
2023-03-02T01:26:59.474Z,3.05
2023-03-02T01:29:26.914Z,4.22
2023-03-02T01:31:54.313Z,5.88
2023-03-02T01:34:21.570Z,4.75
2023-03-02T01:36:48.721Z,4.22
2023-03-02T01:39:16.187Z,4.05
2023-03-02T01:41:45.516Z,8.35
2023-03-02T01:44:31.959Z,2.33
2023-03-02T01:46:59.435Z,2.80
2023-03-02T01:49:27.597Z,2.40
2023-03-02T01:51:58.383Z,4.07
2023-03-02T01:54:26.372Z,3.03
2023-03-02T01:56:58.648Z,3.22
2023-03-02T01:59:27.197Z,2.95
2023-03-02T02:01:57.390Z,4.43
2023-03-02T02:04:27.361Z,6.88
2023-03-02T02:07:00.263Z,6.80
2023-03-02T02:09:30.740Z,7.85
2023-03-02T02:11:58.139Z,4.47
2023-03-02T02:14:25.678Z,3.08
2023-03-02T02:16:53.323Z,5.03
2023-03-02T02:19:36.036Z,4.63
2023-03-02T02:22:03.351Z,3.15
2023-03-02T02:24:41.511Z,2.55
2023-03-02T02:27:08.937Z,4.65
2023-03-02T02:29:38.478Z,6.28
2023-03-02T02:32:26.417Z,4.13
2023-03-02T02:34:59.856Z,3.30
2023-03-02T02:37:29.512Z,6.07
2023-03-02T02:39:58.082Z,8.27
2023-03-02T02:42:29.016Z,3.05
2023-03-02T02:44:57.776Z,4.40
2023-03-02T02:47:25.211Z,2.88
2023-03-02T02:49:56.630Z,2.47
2023-03-02T02:52:25.934Z,9.23
2023-03-02T02:54:55.465Z,3.70
2023-03-02T02:57:25.740Z,5.68
2023-03-02T02:59:56.608Z,3.92
2023-03-02T03:02:25.829Z,29.05
2023-03-02T03:05:02.389Z,3.33
2023-03-02T03:07:32.233Z,3.20
2023-03-02T03:10:11.524Z,5.82
2023-03-02T03:12:39.868Z,3.83
2023-03-02T03:15:10.848Z,3.38
2023-03-02T03:17:38.218Z,5.65
2023-03-02T03:20:06.712Z,2.90
2023-03-02T03:22:38.210Z,11.50
2023-03-02T03:25:07.276Z,6.05
2023-03-02T03:27:34.420Z,5.30
2023-03-02T03:30:03.329Z,6.32
2023-03-02T03:32:35.363Z,3.42
2023-03-02T03:35:03.519Z,4.22
2023-03-02T03:37:32.973Z,3.40
2023-03-02T03:40:00.529Z,2.70
2023-03-02T03:42:29.220Z,4.15
2023-03-02T03:44:59.051Z,4.10
2023-03-02T03:47:26.357Z,7.03
2023-03-02T03:49:53.631Z,4.93
2023-03-02T03:52:30.265Z,2.80
2023-03-02T03:55:03.096Z,3.40
2023-03-02T03:57:30.568Z,3.13
2023-03-02T03:59:57.806Z,2.55
2023-03-02T04:02:25.171Z,2.30
2023-03-02T04:04:52.412Z,4.75
2023-03-02T04:07:20.202Z,3.15
2023-03-02T04:09:47.725Z,1.75
2023-03-02T04:12:16.201Z,3.33
2023-03-02T04:14:47.911Z,4.07
2023-03-02T04:17:15.078Z,3.05
2023-03-02T04:19:45.737Z,7.22
2023-03-02T04:22:13.163Z,15.77
2023-03-02T04:24:40.414Z,5.05
2023-03-02T04:27:08.618Z,4.72
2023-03-02T04:29:37.323Z,3.17
2023-03-02T04:32:06.568Z,5.50
2023-03-02T04:34:35.679Z,6.50
2023-03-02T04:37:03.434Z,9.52
2023-03-02T04:39:30.812Z,9.63
2023-03-02T04:41:57.989Z,6.22
2023-03-02T04:44:25.318Z,7.75
2023-03-02T04:46:52.826Z,8.82
2023-03-02T04:49:22.044Z,11.23
2023-03-02T04:51:49.766Z,7.25
2023-03-02T04:54:21.966Z,9.65
2023-03-02T04:56:51.399Z,11.40
2023-03-02T04:59:23.956Z,10.45
2023-03-02T05:01:51.166Z,12.03
2023-03-02T05:04:18.675Z,5.45
2023-03-02T05:06:45.972Z,18.45
2023-03-02T05:09:13.277Z,13.90
2023-03-02T05:11:40.718Z,9.15
2023-03-02T05:14:09.610Z,10.18
2023-03-02T05:16:38.738Z,9.32
2023-03-02T05:19:09.453Z,8.85
2023-03-02T05:21:36.704Z,11.75
2023-03-02T05:24:04.162Z,18.40
2023-03-02T05:26:31.858Z,12.20
2023-03-02T05:28:59.227Z,20.48
2023-03-02T05:31:37.804Z,14.75
2023-03-02T05:34:06.184Z,13.35
2023-03-02T05:36:33.926Z,8.30
2023-03-02T05:39:01.544Z,10.32
2023-03-02T05:41:28.928Z,12.82
2023-03-02T05:43:56.239Z,14.45
2023-03-02T05:46:23.691Z,12.25
2023-03-02T05:48:50.995Z,14.13
2023-03-02T05:51:18.141Z,16.00
2023-03-02T05:53:45.463Z,12.95
2023-03-02T05:56:12.703Z,16.50
2023-03-02T05:58:39.853Z,17.25
2023-03-02T06:01:13.561Z,18.52
2023-03-02T06:03:42.892Z,29.17
2023-03-02T06:06:13.694Z,10.25
2023-03-02T06:08:41.294Z,17.42
2023-03-02T06:11:08.872Z,11.57
2023-03-02T06:13:36.475Z,16.85
2023-03-02T06:16:03.896Z,18.30
2023-03-02T06:18:31.299Z,13.80
2023-03-02T06:20:58.880Z,13.55
2023-03-02T06:23:26.300Z,17.13
2023-03-02T06:25:53.511Z,13.05
2023-03-02T06:28:21.771Z,16.83
2023-03-02T06:30:49.659Z,18.00
2023-03-02T06:33:18.118Z,16.63
2023-03-02T06:35:45.971Z,16.80
2023-03-02T06:38:13.411Z,25.77
2023-03-02T06:40:40.643Z,14.80
2023-03-02T06:43:07.800Z,14.68
2023-03-02T06:45:35.119Z,18.55
2023-03-02T06:48:02.777Z,16.67
2023-03-02T06:50:30.104Z,20.92
2023-03-02T06:52:57.458Z,15.43
2023-03-02T06:55:24.756Z,16.48
2023-03-02T06:57:52.485Z,17.52
2023-03-02T07:00:26.217Z,14.38
2023-03-02T07:02:53.818Z,23.17
2023-03-02T07:05:21.571Z,14.52
2023-03-02T07:07:48.864Z,18.42
2023-03-02T07:10:16.288Z,12.35
2023-03-02T07:12:43.632Z,19.35
2023-03-02T07:15:15.268Z,14.52
2023-03-02T07:17:44.005Z,13.95
2023-03-02T07:20:12.421Z,19.55
2023-03-02T07:22:39.865Z,19.10
2023-03-02T07:25:08.086Z,19.83
2023-03-02T07:27:35.396Z,13.35
2023-03-02T07:30:02.685Z,18.38
2023-03-02T07:32:30.016Z,17.92
2023-03-02T07:34:57.330Z,11.85
2023-03-02T07:37:24.702Z,16.40
2023-03-02T07:39:51.899Z,16.67
2023-03-02T07:42:19.206Z,11.40
2023-03-02T07:44:53.176Z,19.58
2023-03-02T07:47:20.564Z,27.02
2023-03-02T07:49:47.924Z,18.50
2023-03-02T07:52:16.238Z,20.42
2023-03-02T07:54:43.533Z,16.70
2023-03-02T07:57:13.758Z,17.13
2023-03-02T07:59:40.974Z,17.88
2023-03-02T08:02:10.221Z,22.40
2023-03-02T08:04:37.496Z,17.95
2023-03-02T08:07:04.668Z,13.88
2023-03-02T08:09:32.040Z,14.23
2023-03-02T08:11:59.394Z,26.58
2023-03-02T08:14:27.786Z,23.90
2023-03-02T08:16:55.146Z,18.27
2023-03-02T08:19:22.402Z,28.63
2023-03-02T08:21:49.613Z,17.23
2023-03-02T08:24:16.888Z,16.67
2023-03-02T08:26:44.171Z,16.23
2023-03-02T08:29:11.402Z,21.70
2023-03-02T08:31:38.699Z,30.38
2023-03-02T08:34:05.985Z,16.58
2023-03-02T08:36:33.495Z,26.00
2023-03-02T08:39:01.040Z,21.08
2023-03-02T08:41:28.247Z,20.73
2023-03-02T08:43:56.272Z,22.85
2023-03-02T08:46:23.821Z,20.52
2023-03-02T08:48:51.230Z,21.35
2023-03-02T08:51:20.502Z,20.73
2023-03-02T08:53:50.410Z,14.18
2023-03-02T08:56:25.726Z,25.02
2023-03-02T08:58:54.011Z,12.07
2023-03-02T09:01:22.941Z,12.32
2023-03-02T09:03:50.665Z,25.42
2023-03-02T09:06:18.106Z,22.48
2023-03-02T09:08:45.548Z,16.10
2023-03-02T09:11:12.938Z,19.23
2023-03-02T09:13:40.435Z,14.82
2023-03-02T09:16:08.488Z,30.60
2023-03-02T09:18:36.206Z,18.00
2023-03-02T09:21:03.701Z,10.70
2023-03-02T09:23:31.259Z,12.57
2023-03-02T09:25:58.587Z,18.30
2023-03-02T09:28:25.829Z,12.32
2023-03-02T09:30:53.855Z,15.82
2023-03-02T09:33:21.670Z,10.18
2023-03-02T09:35:48.953Z,14.32
2023-03-02T09:38:17.045Z,15.93
2023-03-02T09:41:04.643Z,12.88
2023-03-02T09:43:31.943Z,19.48
2023-03-02T09:46:16.575Z,11.55
2023-03-02T09:48:43.903Z,12.40
2023-03-02T09:51:24.807Z,22.25
2023-03-02T09:53:55.172Z,15.23
2023-03-02T09:56:22.430Z,16.35
2023-03-02T09:59:03.818Z,16.90
2023-03-02T10:01:35.402Z,11.38
2023-03-02T10:04:12.018Z,15.05
2023-03-02T10:06:39.417Z,12.43
2023-03-02T10:09:06.622Z,13.55
2023-03-02T10:11:57.230Z,17.00
2023-03-02T10:14:27.616Z,17.58
2023-03-02T10:17:03.123Z,16.85
2023-03-02T10:19:34.236Z,15.75
2023-03-02T10:22:09.968Z,14.13
2023-03-02T10:24:40.215Z,16.52
2023-03-02T10:27:17.793Z,13.68
2023-03-02T10:29:45.074Z,14.70
2023-03-02T10:32:20.082Z,8.23
2023-03-02T10:34:48.150Z,12.07
2023-03-02T10:37:16.987Z,13.30
2023-03-02T10:39:44.208Z,13.65
2023-03-02T10:42:15.702Z,18.85
2023-03-02T10:44:46.067Z,16.77
2023-03-02T10:47:23.985Z,11.57
2023-03-02T10:49:51.746Z,13.02
2023-03-02T10:52:20.748Z,12.73
2023-03-02T10:54:48.812Z,11.45
2023-03-02T10:57:29.497Z,17.27
2023-03-02T11:00:15.214Z,14.45
2023-03-02T11:02:49.608Z,16.40
2023-03-02T11:05:23.875Z,16.55
2023-03-02T11:08:20.397Z,21.45
2023-03-02T11:11:03.883Z,15.95
2023-03-02T11:13:31.128Z,11.43
2023-03-02T11:16:02.242Z,17.73
2023-03-02T11:18:43.609Z,14.32
2023-03-02T11:21:23.348Z,12.80
2023-03-02T11:24:01.157Z,11.15
2023-03-02T11:26:34.724Z,9.65
2023-03-02T11:29:01.929Z,13.95
2023-03-02T11:31:29.137Z,12.43
2023-03-02T11:34:17.870Z,10.85
2023-03-02T11:37:20.935Z,11.70
2023-03-02T11:39:54.988Z,22.40
2023-03-02T11:42:27.695Z,15.00
2023-03-02T11:44:55.635Z,12.43
2023-03-02T11:47:23.311Z,16.60
2023-03-02T11:49:54.991Z,14.32
2023-03-02T11:52:28.354Z,15.13
2023-03-02T11:55:00.857Z,11.63
2023-03-02T11:57:38.695Z,11.13
2023-03-02T12:00:13.075Z,15.13
2023-03-02T12:02:40.271Z,13.85
2023-03-02T12:05:08.999Z,21.63
2023-03-02T12:07:36.202Z,13.48
2023-03-02T12:10:09.721Z,17.25
2023-03-02T12:12:40.895Z,13.05
2023-03-02T12:15:26.653Z,13.32
2023-03-02T12:17:53.860Z,21.42
2023-03-02T12:20:20.955Z,10.73
2023-03-02T12:22:48.223Z,11.38
2023-03-02T12:25:21.415Z,15.10
2023-03-02T12:27:49.537Z,16.05
2023-03-02T12:30:16.852Z,15.52
2023-03-02T12:32:45.104Z,10.52
2023-03-02T12:35:12.922Z,15.30
2023-03-02T12:37:39.991Z,9.27
2023-03-02T12:40:26.047Z,11.15
2023-03-02T12:43:11.962Z,11.02
2023-03-02T12:45:56.427Z,8.50
2023-03-02T12:48:23.731Z,11.75
2023-03-02T12:50:52.076Z,10.88
2023-03-02T12:53:20.820Z,16.77
2023-03-02T12:55:48.057Z,16.92
2023-03-02T12:58:19.978Z,11.95
2023-03-02T13:00:54.837Z,16.08
2023-03-02T13:03:22.230Z,13.30
2023-03-02T13:05:49.636Z,11.77
2023-03-02T13:08:18.925Z,10.55
2023-03-02T13:10:52.934Z,13.32
2023-03-02T13:13:27.761Z,12.20
2023-03-02T13:15:59.088Z,13.82
2023-03-02T13:18:31.637Z,18.25
2023-03-02T13:20:59.581Z,11.07
2023-03-02T13:23:27.389Z,12.70
2023-03-02T13:25:59.147Z,12.07
2023-03-02T13:28:36.758Z,13.80
2023-03-02T13:31:04.130Z,12.52
2023-03-02T13:33:32.614Z,9.48
2023-03-02T13:35:59.935Z,9.65
2023-03-02T13:38:31.560Z,12.60
2023-03-02T13:40:58.786Z,7.63
2023-03-02T13:43:35.590Z,12.55
2023-03-02T13:46:04.947Z,7.50
2023-03-02T13:48:32.924Z,8.90
2023-03-02T13:51:15.070Z,16.88
2023-03-02T13:53:45.414Z,11.45
2023-03-02T13:56:16.740Z,11.63
2023-03-02T13:58:43.980Z,13.38
2023-03-02T14:01:12.292Z,11.98
2023-03-02T14:03:39.678Z,13.90
2023-03-02T14:06:07.054Z,11.75
2023-03-02T14:08:34.345Z,16.98
2023-03-02T14:11:01.772Z,13.10
2023-03-02T14:13:37.827Z,12.88
2023-03-02T14:16:05.376Z,13.07
2023-03-02T14:18:39.819Z,12.07
2023-03-02T14:21:11.728Z,12.55
2023-03-02T14:23:41.081Z,11.70
2023-03-02T14:26:14.571Z,14.90
2023-03-02T14:28:41.828Z,14.80
2023-03-02T14:31:09.620Z,12.88
2023-03-02T14:33:36.925Z,8.98
2023-03-02T14:36:06.030Z,9.48
2023-03-02T14:38:33.287Z,13.07
2023-03-02T14:41:00.689Z,20.38
2023-03-02T14:43:27.913Z,12.85
2023-03-02T14:45:55.292Z,11.35
2023-03-02T14:48:22.580Z,7.57
2023-03-02T14:50:50.616Z,15.23
2023-03-02T14:53:23.602Z,10.68
2023-03-02T14:55:50.857Z,12.13
2023-03-02T14:58:19.960Z,11.18
2023-03-02T15:00:48.346Z,7.82
2023-03-02T15:03:19.155Z,13.57
2023-03-02T15:06:00.156Z,11.52
2023-03-02T15:08:27.790Z,17.73
2023-03-02T15:10:55.105Z,18.98
2023-03-02T15:13:22.459Z,14.25
2023-03-02T15:15:49.984Z,11.75
2023-03-02T15:18:19.720Z,10.80
2023-03-02T15:20:47.158Z,14.55
2023-03-02T15:23:14.623Z,10.43
2023-03-02T15:25:42.913Z,10.13
2023-03-02T15:28:10.219Z,10.00
2023-03-02T15:30:37.474Z,9.80
2023-03-02T15:33:04.599Z,15.93
2023-03-02T15:35:31.999Z,13.98
2023-03-02T15:38:02.423Z,10.32
2023-03-02T15:40:29.676Z,7.20
2023-03-02T15:42:57.097Z,9.70
2023-03-02T15:45:24.379Z,10.88
2023-03-02T15:47:51.879Z,7.47
2023-03-02T15:50:19.142Z,10.30
2023-03-02T15:52:46.463Z,11.60
2023-03-02T15:55:17.156Z,8.02
2023-03-02T15:57:44.457Z,7.32
2023-03-02T16:00:13.387Z,8.57
2023-03-02T16:02:41.069Z,7.13
2023-03-02T16:05:09.011Z,8.45
2023-03-02T16:07:37.149Z,8.25
2023-03-02T16:10:04.579Z,5.28
2023-03-02T16:12:31.840Z,12.48
2023-03-02T16:14:59.020Z,6.75
2023-03-02T16:17:27.297Z,7.75
2023-03-02T16:19:54.534Z,5.30
2023-03-02T16:22:21.792Z,9.23
2023-03-02T16:24:49.980Z,10.50
2023-03-02T16:27:19.285Z,11.90
2023-03-02T16:29:46.598Z,7.75
2023-03-02T16:32:14.900Z,6.50
2023-03-02T16:34:42.184Z,6.95
2023-03-02T16:37:09.577Z,8.93
2023-03-02T16:39:37.012Z,9.32
2023-03-02T16:42:04.806Z,7.28
2023-03-02T16:44:32.055Z,8.55
2023-03-02T16:46:59.334Z,6.75
2023-03-02T16:49:26.475Z,11.13
2023-03-02T16:51:57.711Z,8.20
2023-03-02T16:54:25.380Z,8.98
2023-03-02T16:56:52.551Z,5.35
2023-03-02T16:59:19.937Z,8.43
2023-03-02T17:01:47.251Z,6.90
2023-03-02T17:04:18.263Z,7.97
2023-03-02T17:06:59.752Z,11.55
2023-03-02T17:09:28.122Z,8.38
2023-03-02T17:11:55.407Z,7.18
2023-03-02T17:14:22.833Z,10.35
2023-03-02T17:16:50.034Z,10.18
2023-03-02T17:19:18.324Z,8.25
2023-03-02T17:21:45.570Z,8.07
2023-03-02T17:24:13.631Z,7.53
2023-03-02T17:26:41.895Z,7.68
2023-03-02T17:29:09.167Z,10.70
2023-03-02T17:31:36.430Z,10.50
2023-03-02T17:34:03.656Z,8.75
2023-03-02T17:36:33.300Z,10.77
2023-03-02T17:39:02.075Z,10.50
2023-03-02T17:41:29.303Z,8.77
2023-03-02T17:43:57.528Z,8.98
2023-03-02T17:46:26.566Z,13.50
2023-03-02T17:48:55.027Z,10.18
2023-03-02T17:51:22.696Z,10.20
2023-03-02T17:53:51.951Z,9.95
2023-03-02T17:56:21.928Z,8.93
2023-03-02T17:58:59.805Z,10.25
2023-03-02T18:01:27.406Z,8.60
2023-03-02T18:03:54.654Z,10.07
2023-03-02T18:06:22.089Z,10.10
2023-03-02T18:08:50.287Z,12.07
2023-03-02T18:11:18.352Z,8.20
2023-03-02T18:13:45.859Z,7.78
2023-03-02T18:16:13.403Z,16.15
2023-03-02T18:18:40.809Z,12.88
2023-03-02T18:21:10.062Z,12.45
2023-03-02T18:23:37.352Z,17.70
2023-03-02T18:26:04.575Z,15.27
2023-03-02T18:28:31.841Z,19.83
2023-03-02T18:30:59.979Z,11.05
2023-03-02T18:33:28.491Z,18.48
2023-03-02T18:35:55.835Z,12.75
2023-03-02T18:38:23.073Z,14.90
2023-03-02T18:40:50.286Z,12.38
2023-03-02T18:43:17.613Z,14.32
2023-03-02T18:45:44.844Z,14.00
2023-03-02T18:48:12.032Z,24.45
2023-03-02T18:50:39.561Z,20.08
2023-03-02T18:53:08.451Z,15.38
2023-03-02T18:55:37.116Z,17.88
2023-03-02T18:58:04.711Z,16.35
2023-03-02T19:00:31.962Z,15.65
2023-03-02T19:02:59.223Z,18.33
2023-03-02T19:05:26.980Z,18.08
2023-03-02T19:07:54.786Z,17.33
2023-03-02T19:10:22.013Z,16.23
2023-03-02T19:12:49.229Z,12.07
2023-03-02T19:15:16.653Z,24.85
2023-03-02T19:17:44.495Z,12.65
2023-03-02T19:20:13.487Z,15.23
2023-03-02T19:22:40.811Z,13.57
2023-03-02T19:25:08.565Z,16.38
2023-03-02T19:27:35.794Z,18.98
2023-03-02T19:30:03.100Z,16.58
2023-03-02T19:32:30.488Z,14.73
2023-03-02T19:34:59.520Z,12.52
2023-03-02T19:37:26.855Z,16.85
2023-03-02T19:39:54.333Z,15.15
2023-03-02T19:42:21.568Z,20.13
2023-03-02T19:44:48.760Z,20.77
2023-03-02T19:47:16.048Z,20.08
2023-03-02T19:49:43.270Z,9.27
2023-03-02T19:52:10.540Z,15.90
2023-03-02T19:54:37.766Z,15.55
2023-03-02T19:57:04.992Z,19.75
2023-03-02T19:59:32.446Z,15.55
2023-03-02T20:01:59.722Z,15.20
2023-03-02T20:04:27.696Z,16.38
2023-03-02T20:06:54.911Z,13.48
2023-03-02T20:09:24.032Z,16.08
2023-03-02T20:11:58.579Z,16.55
2023-03-02T20:14:33.847Z,15.35
2023-03-02T20:17:02.112Z,15.52
2023-03-02T20:19:29.415Z,12.40
2023-03-02T20:21:56.595Z,21.33
2023-03-02T20:24:24.017Z,17.67
2023-03-02T20:26:51.269Z,14.88
2023-03-02T20:29:19.854Z,13.88
2023-03-02T20:31:47.054Z,18.27
2023-03-02T20:34:17.531Z,15.73
2023-03-02T20:36:45.754Z,12.82
2023-03-02T20:39:15.697Z,9.98
2023-03-02T20:41:43.076Z,11.27
2023-03-02T20:44:12.789Z,14.20
2023-03-02T20:46:43.133Z,18.42
2023-03-02T20:49:12.897Z,14.18
2023-03-02T20:51:45.178Z,15.98
2023-03-02T20:54:12.383Z,14.75
2023-03-02T20:56:39.741Z,16.95
2023-03-02T20:59:07.122Z,17.40
2023-03-02T21:01:38.179Z,14.02
2023-03-02T21:04:05.655Z,18.23
2023-03-02T21:06:34.377Z,14.80
2023-03-02T21:09:02.470Z,9.23
2023-03-02T21:11:30.349Z,15.40
2023-03-02T21:13:59.226Z,12.05
2023-03-02T21:16:28.471Z,14.43
2023-03-02T21:18:57.722Z,15.00
2023-03-02T21:21:40.431Z,17.08
2023-03-02T21:24:08.582Z,13.60
2023-03-02T21:26:36.829Z,14.98
2023-03-02T21:29:05.266Z,12.43
2023-03-02T21:31:32.615Z,13.73
2023-03-02T21:34:00.581Z,16.38
2023-03-02T21:36:28.174Z,14.65
2023-03-02T21:38:56.720Z,17.02
2023-03-02T21:41:24.361Z,19.95
2023-03-02T21:43:52.119Z,13.10
2023-03-02T21:46:21.040Z,10.85
2023-03-02T21:48:49.076Z,16.27
2023-03-02T21:51:16.333Z,12.70
2023-03-02T21:53:43.683Z,14.20
2023-03-02T21:56:11.533Z,12.85
2023-03-02T21:58:39.399Z,15.43
2023-03-02T22:01:06.627Z,11.20
2023-03-02T22:03:33.760Z,10.23
2023-03-02T22:06:00.869Z,16.67
2023-03-02T22:08:28.113Z,11.13
2023-03-02T22:10:55.368Z,20.27
2023-03-02T22:13:26.611Z,10.63
2023-03-02T22:16:13.672Z,8.98
2023-03-02T22:18:41.330Z,16.77
2023-03-02T22:21:25.606Z,8.05
2023-03-02T22:24:18.600Z,14.18
2023-03-02T22:27:03.070Z,14.10
2023-03-02T22:29:33.378Z,11.95
2023-03-02T22:32:20.945Z,12.77
2023-03-02T22:34:49.331Z,12.90
2023-03-02T22:37:18.131Z,12.07
2023-03-02T22:39:45.577Z,12.55
2023-03-02T22:42:17.218Z,14.80
2023-03-02T22:44:47.121Z,12.05
2023-03-02T22:47:18.780Z,12.48
2023-03-02T22:49:46.287Z,11.23
2023-03-02T22:52:21.122Z,9.52
2023-03-02T22:54:48.405Z,13.48
2023-03-02T22:57:23.033Z,7.70
2023-03-02T22:59:50.300Z,8.43
2023-03-02T23:02:22.148Z,18.20
2023-03-02T23:04:50.151Z,7.78
2023-03-02T23:07:21.923Z,6.63
2023-03-02T23:09:49.326Z,10.98
2023-03-02T23:12:25.256Z,13.68
2023-03-02T23:14:52.405Z,11.25
2023-03-02T23:17:21.743Z,14.70
2023-03-02T23:19:51.047Z,15.07
2023-03-02T23:22:18.489Z,11.98
2023-03-02T23:24:45.713Z,12.52
2023-03-02T23:27:13.226Z,13.02
2023-03-02T23:29:40.633Z,10.38
2023-03-02T23:32:08.138Z,9.13
2023-03-02T23:34:35.678Z,14.32
2023-03-02T23:37:02.830Z,11.35
2023-03-02T23:39:30.097Z,8.52
2023-03-02T23:41:57.728Z,9.88
2023-03-02T23:44:25.104Z,14.95
2023-03-02T23:46:52.388Z,11.25
2023-03-02T23:49:20.008Z,9.73
2023-03-02T23:51:47.393Z,12.18
2023-03-02T23:54:14.714Z,12.32
2023-03-02T23:56:42.042Z,12.52
2023-03-02T23:59:12.688Z,12.68
